sensor_id;sensor_type;location;lat;lon;timestamp;pressure;altitude;pressure_sealevel;temperature;humidity
53699;BME280;39591;53.952;27.612;2023-02-22T00:01:18;1005.6;;;-1.4;60.4
53699;BME280;39591;53.952;27.612;2023-02-22T00:06:44;1005.6;;;-1.5;60.4
53699;BME280;39591;53.952;27.612;2023-02-22T00:12:00;1005.7;;;-1.6;60.3
53699;BME280;39591;53.952;27.612;2023-02-22T00:16:44;1005.8;;;-1.7;60
53699;BME280;39591;53.952;27.612;2023-02-22T00:21:09;1005.9;;;-1.8;59.4
53699;BME280;39591;53.952;27.612;2023-02-22T00:26:34;1005.9;;;-1.9;59
53699;BME280;39591;53.952;27.612;2023-02-22T00:31:44;1006;;;-1.9;59.9
53699;BME280;39591;53.952;27.612;2023-02-22T00:37:04;1006.1;;;-1.9;61.1
53699;BME280;39591;53.952;27.612;2023-02-22T00:41:24;1006.2;;;-1.9;63.5
53699;BME280;39591;53.952;27.612;2023-02-22T00:46:36;1006.3;;;-2;62.4
53699;BME280;39591;53.952;27.612;2023-02-22T00:51:21;1006.5;;;-2.1;63.2
53699;BME280;39591;53.952;27.612;2023-02-22T00:56:46;1006.6;;;-2.3;65
53699;BME280;39591;53.952;27.612;2023-02-22T01:02:02;1006.7;;;-2.4;64.8
53699;BME280;39591;53.952;27.612;2023-02-22T01:06:32;1006.7;;;-2.3;64.1
53699;BME280;39591;53.952;27.612;2023-02-22T01:11:36;1006.8;;;-2.3;63.1
53699;BME280;39591;53.952;27.612;2023-02-22T01:16:20;1006.9;;;-2.3;61.4
53699;BME280;39591;53.952;27.612;2023-02-22T01:21:46;1006.9;;;-2.4;60.3
53699;BME280;39591;53.952;27.612;2023-02-22T01:27:04;1007;;;-2.4;60.1
53699;BME280;39591;53.952;27.612;2023-02-22T01:31:50;1007.1;;;-2.5;59.5
53699;BME280;39591;53.952;27.612;2023-02-22T01:36:48;1007.1;;;-2.5;59.2
53699;BME280;39591;53.952;27.612;2023-02-22T01:41:08;1007.2;;;-2.5;59.3
53699;BME280;39591;53.952;27.612;2023-02-22T01:46:46;1007.3;;;-2.5;59.2
53699;BME280;39591;53.952;27.612;2023-02-22T01:52:03;1007.3;;;-2.5;59.5
53699;BME280;39591;53.952;27.612;2023-02-22T01:56:47;1007.4;;;-2.5;59.1
53699;BME280;39591;53.952;27.612;2023-02-22T02:01:08;1007.5;;;-2.6;58.9
53699;BME280;39591;53.952;27.612;2023-02-22T02:06:09;1007.5;;;-2.7;59
53699;BME280;39591;53.952;27.612;2023-02-22T02:11:46;1007.6;;;-2.7;59.3
53699;BME280;39591;53.952;27.612;2023-02-22T02:16:57;1007.7;;;-2.7;62.5
53699;BME280;39591;53.952;27.612;2023-02-22T02:21:52;1007.7;;;-2.7;60.2
53699;BME280;39591;53.952;27.612;2023-02-22T02:26:43;1007.7;;;-2.7;59.5
53699;BME280;39591;53.952;27.612;2023-02-22T02:31:17;1007.8;;;-2.7;59.4
53699;BME280;39591;53.952;27.612;2023-02-22T02:36:49;1007.9;;;-2.7;59.3
53699;BME280;39591;53.952;27.612;2023-02-22T02:42:02;1007.9;;;-2.8;58.8
53699;BME280;39591;53.952;27.612;2023-02-22T02:47:00;1008;;;-2.8;58.9
53699;BME280;39591;53.952;27.612;2023-02-22T02:51:23;1008.1;;;-2.9;58.2
53699;BME280;39591;53.952;27.612;2023-02-22T02:56:18;1008.1;;;-2.9;58.5
53699;BME280;39591;53.952;27.612;2023-02-22T03:02:08;1008.2;;;-2.9;58.7
53699;BME280;39591;53.952;27.612;2023-02-22T03:07:14;1008.3;;;-2.9;58.3
53699;BME280;39591;53.952;27.612;2023-02-22T03:11:48;1008.4;;;-3;57.7
53699;BME280;39591;53.952;27.612;2023-02-22T03:16:26;1008.4;;;-3.1;57.6
53699;BME280;39591;53.952;27.612;2023-02-22T03:21:09;1008.5;;;-3.1;57.4
53699;BME280;39591;53.952;27.612;2023-02-22T03:26:46;1008.5;;;-3.2;57.4
53699;BME280;39591;53.952;27.612;2023-02-22T03:32:06;1008.5;;;-3.1;57.5
53699;BME280;39591;53.952;27.612;2023-02-22T03:36:47;1008.5;;;-3;57.6
53699;BME280;39591;53.952;27.612;2023-02-22T03:41:21;1008.6;;;-3.1;58
53699;BME280;39591;53.952;27.612;2023-02-22T03:46:08;1008.6;;;-3.1;57.9
53699;BME280;39591;53.952;27.612;2023-02-22T03:52:04;1008.7;;;-3.1;57.5
53699;BME280;39591;53.952;27.612;2023-02-22T03:56:40;1008.7;;;-3.1;57.5
53699;BME280;39591;53.952;27.612;2023-02-22T04:01:32;1008.8;;;-3.1;57.3
53699;BME280;39591;53.952;27.612;2023-02-22T04:07:04;1008.9;;;-3;57.2
53699;BME280;39591;53.952;27.612;2023-02-22T04:11:46;1008.9;;;-3.1;57
53699;BME280;39591;53.952;27.612;2023-02-22T04:17:02;1008.9;;;-3.2;57.5
53699;BME280;39591;53.952;27.612;2023-02-22T04:21:08;1009;;;-3.2;58.1
53699;BME280;39591;53.952;27.612;2023-02-22T04:26:20;1009;;;-3.2;58.5
53699;BME280;39591;53.952;27.612;2023-02-22T04:32:02;1009.1;;;-3.1;58.5
53699;BME280;39591;53.952;27.612;2023-02-22T04:36:08;1009.1;;;-3;58.2
53699;BME280;39591;53.952;27.612;2023-02-22T04:42:02;1009.2;;;-3;58.4
53699;BME280;39591;53.952;27.612;2023-02-22T04:46:48;1009.2;;;-3;58.7
53699;BME280;39591;53.952;27.612;2023-02-22T04:51:44;1009.3;;;-3.1;58.6
53699;BME280;39591;53.952;27.612;2023-02-22T04:57:02;1009.3;;;-3.1;58.6
53699;BME280;39591;53.952;27.612;2023-02-22T05:01:18;1009.4;;;-3.1;58.8
53699;BME280;39591;53.952;27.612;2023-02-22T05:07:04;1009.5;;;-3.1;59
53699;BME280;39591;53.952;27.612;2023-02-22T05:11:50;1009.5;;;-3.1;59
53699;BME280;39591;53.952;27.612;2023-02-22T05:16:18;1009.6;;;-3.1;59.4
53699;BME280;39591;53.952;27.612;2023-02-22T05:22:02;1009.7;;;-3.2;60
53699;BME280;39591;53.952;27.612;2023-02-22T05:26:08;1009.8;;;-3.2;59.5
53699;BME280;39591;53.952;27.612;2023-02-22T05:32:00;1009.9;;;-3.2;59.5
53699;BME280;39591;53.952;27.612;2023-02-22T05:36:48;1009.9;;;-3.1;59.5
53699;BME280;39591;53.952;27.612;2023-02-22T05:41:08;1009.9;;;-3.1;59.1
53699;BME280;39591;53.952;27.612;2023-02-22T05:47:04;1010;;;-3.1;59.2
53699;BME280;39591;53.952;27.612;2023-02-22T05:51:08;1010;;;-3.2;59.2
53699;BME280;39591;53.952;27.612;2023-02-22T05:57:00;1010;;;-3.3;59.3
53699;BME280;39591;53.952;27.612;2023-02-22T06:01:46;1010.1;;;-3.4;59.6
53699;BME280;39591;53.952;27.612;2023-02-22T06:06:32;1010.1;;;-3.4;60
53699;BME280;39591;53.952;27.612;2023-02-22T06:12:02;1010.2;;;-3.3;59.9
53699;BME280;39591;53.952;27.612;2023-02-22T06:16:50;1010.3;;;-3.2;59.9
53699;BME280;39591;53.952;27.612;2023-02-22T06:22:00;1010.4;;;-3;59.7
53699;BME280;39591;53.952;27.612;2023-02-22T06:26:44;1010.4;;;-2.9;58.9
53699;BME280;39591;53.952;27.612;2023-02-22T06:31:32;1010.4;;;-2.9;57.9
53699;BME280;39591;53.952;27.612;2023-02-22T06:36:46;1010.4;;;-3;57.4
53699;BME280;39591;53.952;27.612;2023-02-22T06:41:08;1010.5;;;-2.9;57.2
53699;BME280;39591;53.952;27.612;2023-02-22T06:47:02;1010.5;;;-2.9;56.6
53699;BME280;39591;53.952;27.612;2023-02-22T06:51:44;1010.6;;;-2.8;56.7
53699;BME280;39591;53.952;27.612;2023-02-22T06:56:32;1010.6;;;-2.9;57.1
53699;BME280;39591;53.952;27.612;2023-02-22T07:02:00;1010.6;;;-2.8;56.2
53699;BME280;39591;53.952;27.612;2023-02-22T07:06:08;1010.7;;;-2.6;55.9
53699;BME280;39591;53.952;27.612;2023-02-22T07:12:00;1010.7;;;-2.4;55.3
53699;BME280;39591;53.952;27.612;2023-02-22T07:16:46;1010.7;;;-2.2;54.8
53699;BME280;39591;53.952;27.612;2023-02-22T07:21:30;1010.8;;;-2.1;54.7
53699;BME280;39591;53.952;27.612;2023-02-22T07:27:02;1010.9;;;-2;54.3
53699;BME280;39591;53.952;27.612;2023-02-22T07:31:33;1010.9;;;-1.9;53.2
53699;BME280;39591;53.952;27.612;2023-02-22T07:36:58;1010.9;;;-2;53
53699;BME280;39591;53.952;27.612;2023-02-22T07:41:48;1011;;;-2;52.6
53699;BME280;39591;53.952;27.612;2023-02-22T07:46:32;1011;;;-2;52.9
53699;BME280;39591;53.952;27.612;2023-02-22T07:52:02;1011;;;-2;52.6
53699;BME280;39591;53.952;27.612;2023-02-22T07:56:48;1011.1;;;-1.9;53
53699;BME280;39591;53.952;27.612;2023-02-22T08:01:47;1011.1;;;-1.8;52.9
53699;BME280;39591;53.952;27.612;2023-02-22T08:07:02;1011.2;;;-1.8;52.6
53699;BME280;39591;53.952;27.612;2023-02-22T08:11:32;1011.2;;;-1.8;53.5
53699;BME280;39591;53.952;27.612;2023-02-22T08:17:02;1011.3;;;-1.8;53.3
53699;BME280;39591;53.952;27.612;2023-02-22T08:21:08;1011.4;;;-1.6;52.6
53699;BME280;39591;53.952;27.612;2023-02-22T08:26:45;1011.4;;;-1.3;52
53699;BME280;39591;53.952;27.612;2023-02-22T08:31:49;1011.4;;;-1.3;51.8
53699;BME280;39591;53.952;27.612;2023-02-22T08:36:20;1011.5;;;-1.2;51.3
53699;BME280;39591;53.952;27.612;2023-02-22T08:41:58;1011.5;;;-1.2;50.9
53699;BME280;39591;53.952;27.612;2023-02-22T08:46:08;1011.6;;;-1.3;50.4
53699;BME280;39591;53.952;27.612;2023-02-22T08:51:08;1011.7;;;-1.6;50.8
53699;BME280;39591;53.952;27.612;2023-02-22T08:57:00;1011.7;;;-1.9;51.2
53699;BME280;39591;53.952;27.612;2023-02-22T09:01:30;1011.8;;;-1.8;51.1
53699;BME280;39591;53.952;27.612;2023-02-22T09:07:00;1011.8;;;-1.7;50.7
53699;BME280;39591;53.952;27.612;2023-02-22T09:11:32;1011.9;;;-1.5;50.7
53699;BME280;39591;53.952;27.612;2023-02-22T09:16:30;1012;;;-1.6;50.5
53699;BME280;39591;53.952;27.612;2023-02-22T09:21:58;1012;;;-1.8;50.6
53699;BME280;39591;53.952;27.612;2023-02-22T09:26:18;1012;;;-1.8;49.6
53699;BME280;39591;53.952;27.612;2023-02-22T09:32:03;1012.1;;;-1.7;49
53699;BME280;39591;53.952;27.612;2023-02-22T09:36:20;1012.1;;;-1.6;48.7
53699;BME280;39591;53.952;27.612;2023-02-22T09:41:50;1012.1;;;-1.6;48.2
53699;BME280;39591;53.952;27.612;2023-02-22T09:47:02;1012.2;;;-1.6;48.5
53699;BME280;39591;53.952;27.612;2023-02-22T09:51:34;1012.2;;;-1.4;48.5
53699;BME280;39591;53.952;27.612;2023-02-22T09:57:03;1012.2;;;-1.4;48.2
53699;BME280;39591;53.952;27.612;2023-02-22T10:01:13;1012.2;;;-1.3;48.2
53699;BME280;39591;53.952;27.612;2023-02-22T10:07:02;1012.2;;;-1.1;48.1
53699;BME280;39591;53.952;27.612;2023-02-22T10:12:04;1012.2;;;-1;48
53699;BME280;39591;53.952;27.612;2023-02-22T10:16:59;1012.2;;;-0.8;47.9
53699;BME280;39591;53.952;27.612;2023-02-22T10:22:02;1012.2;;;-0.8;47.7
53699;BME280;39591;53.952;27.612;2023-02-22T10:26:12;1012.2;;;-0.8;47.9
53699;BME280;39591;53.952;27.612;2023-02-22T10:31:48;1012.1;;;-0.5;47.4
53699;BME280;39591;53.952;27.612;2023-02-22T10:36:59;1012.1;;;-0.3;47.6
53699;BME280;39591;53.952;27.612;2023-02-22T10:41:33;1012.1;;;-0.1;46.4
53699;BME280;39591;53.952;27.612;2023-02-22T10:46:59;1012.1;;;-0.1;46.1
53699;BME280;39591;53.952;27.612;2023-02-22T10:51:22;1012.1;;;-0.2;46.1
53699;BME280;39591;53.952;27.612;2023-02-22T10:57:02;1012.1;;;-0.3;45.4
53699;BME280;39591;53.952;27.612;2023-02-22T11:02:07;1012.1;;;-0.4;44.9
53699;BME280;39591;53.952;27.612;2023-02-22T11:06:31;1012.1;;;-0.4;44.7
53699;BME280;39591;53.952;27.612;2023-02-22T11:12:06;1012.1;;;-0.3;45
53699;BME280;39591;53.952;27.612;2023-02-22T11:16:16;1012.1;;;-0.5;45.4
53699;BME280;39591;53.952;27.612;2023-02-22T11:21:49;1012.2;;;-0.7;45.3
53699;BME280;39591;53.952;27.612;2023-02-22T11:27:02;1012.2;;;-0.8;45.8
53699;BME280;39591;53.952;27.612;2023-02-22T11:31:39;1012.2;;;-0.7;46.3
53699;BME280;39591;53.952;27.612;2023-02-22T11:37:36;1012.3;;;-0.7;45.2
53699;BME280;39591;53.952;27.612;2023-02-22T11:41:25;1012.4;;;-1;45.2
53699;BME280;39591;53.952;27.612;2023-02-22T11:46:42;1012.4;;;-1;45
53699;BME280;39591;53.952;27.612;2023-02-22T11:51:31;1012.5;;;-1.1;44.5
53699;BME280;39591;53.952;27.612;2023-02-22T11:56:21;1012.4;;;-1.2;44.6
53699;BME280;39591;53.952;27.612;2023-02-22T12:02:04;1012.4;;;-1.2;44.9
53699;BME280;39591;53.952;27.612;2023-02-22T12:06:26;1012.5;;;-1.1;44.8
53699;BME280;39591;53.952;27.612;2023-02-22T12:11:50;1012.6;;;-1.3;45.3
53699;BME280;39591;53.952;27.612;2023-02-22T12:17:06;1012.6;;;-1.3;45.2
53699;BME280;39591;53.952;27.612;2023-02-22T12:21:35;1012.6;;;-1.3;45
53699;BME280;39591;53.952;27.612;2023-02-22T12:27:01;1012.6;;;-1.2;44.5
53699;BME280;39591;53.952;27.612;2023-02-22T12:31:19;1012.7;;;-1.2;44.7
53699;BME280;39591;53.952;27.612;2023-02-22T12:36:33;1012.7;;;-1.1;44.2
53699;BME280;39591;53.952;27.612;2023-02-22T12:42:06;1012.7;;;-1;43.7
53699;BME280;39591;53.952;27.612;2023-02-22T12:46:09;1012.8;;;-0.9;43.4
53699;BME280;39591;53.952;27.612;2023-02-22T12:52:03;1012.8;;;-0.9;43.3
53699;BME280;39591;53.952;27.612;2023-02-22T12:56:23;1012.8;;;-0.9;42.2
53699;BME280;39591;53.952;27.612;2023-02-22T13:01:49;1012.9;;;-0.9;42.1
53699;BME280;39591;53.952;27.612;2023-02-22T13:07:04;1013;;;-0.9;42
53699;BME280;39591;53.952;27.612;2023-02-22T13:11:34;1013;;;-0.8;41.6
53699;BME280;39591;53.952;27.612;2023-02-22T13:17:03;1013;;;-0.9;41.8
53699;BME280;39591;53.952;27.612;2023-02-22T13:21:22;1013.1;;;-0.7;42.3
53699;BME280;39591;53.952;27.612;2023-02-22T13:26:49;1013.2;;;-0.8;42.8
53699;BME280;39591;53.952;27.612;2023-02-22T13:32:04;1013.2;;;-0.9;42.9
53699;BME280;39591;53.952;27.612;2023-02-22T13:36:12;1013.3;;;-1.1;43
53699;BME280;39591;53.952;27.612;2023-02-22T13:42:07;1013.2;;;-1.2;42.8
53699;BME280;39591;53.952;27.612;2023-02-22T13:46:27;1013.2;;;-1.2;43.1
53699;BME280;39591;53.952;27.612;2023-02-22T13:52:04;1013.2;;;-1.2;43.2
53699;BME280;39591;53.952;27.612;2023-02-22T13:57:00;1013.3;;;-1.2;43.4
53699;BME280;39591;53.952;27.612;2023-02-22T14:01:54;1013.3;;;-1.2;44.3
53699;BME280;39591;53.952;27.612;2023-02-22T14:06:44;1013.4;;;-1.3;44.5
53699;BME280;39591;53.952;27.612;2023-02-22T14:11:41;1013.5;;;-1.5;44.9
53699;BME280;39591;53.952;27.612;2023-02-22T14:17:22;1013.5;;;-1.7;45
53699;BME280;39591;53.952;27.612;2023-02-22T14:21:59;1013.6;;;-1.9;44.8
53699;BME280;39591;53.952;27.612;2023-02-22T14:26:31;1013.6;;;-2;45.1
53699;BME280;39591;53.952;27.612;2023-02-22T14:32:02;1013.8;;;-2.2;45.8
53699;BME280;39591;53.952;27.612;2023-02-22T14:36:08;1013.9;;;-2.3;45.9
53699;BME280;39591;53.952;27.612;2023-02-22T14:41:48;1014;;;-2.4;45.9
53699;BME280;39591;53.952;27.612;2023-02-22T14:47:02;1014;;;-2.5;46.2
53699;BME280;39591;53.952;27.612;2023-02-22T14:51:21;1014;;;-2.6;46.9
53699;BME280;39591;53.952;27.612;2023-02-22T14:57:03;1014.1;;;-2.7;47
53699;BME280;39591;53.952;27.612;2023-02-22T15:01:21;1014.1;;;-2.9;47
53699;BME280;39591;53.952;27.612;2023-02-22T15:06:48;1014.1;;;-2.9;47.2
53699;BME280;39591;53.952;27.612;2023-02-22T15:12:13;1014.2;;;-3;47.1
53699;BME280;39591;53.952;27.612;2023-02-22T15:16:31;1014.2;;;-3.2;47.4
53699;BME280;39591;53.952;27.612;2023-02-22T15:22:02;1014.3;;;-3.4;48
53699;BME280;39591;53.952;27.612;2023-02-22T15:26:22;1014.5;;;-3.5;47.9
53699;BME280;39591;53.952;27.612;2023-02-22T15:31:35;1014.6;;;-3.7;47.6
53699;BME280;39591;53.952;27.612;2023-02-22T15:37:13;1014.6;;;-3.9;47.7
53699;BME280;39591;53.952;27.612;2023-02-22T15:41:18;1014.7;;;-4;48.1
53699;BME280;39591;53.952;27.612;2023-02-22T15:47:01;1014.9;;;-4;47.4
53699;BME280;39591;53.952;27.612;2023-02-22T15:51:09;1014.9;;;-4.2;45.5
53699;BME280;39591;53.952;27.612;2023-02-22T15:56:49;1015;;;-4.4;44.9
53699;BME280;39591;53.952;27.612;2023-02-22T16:01:47;1015.1;;;-4.5;45.1
53699;BME280;39591;53.952;27.612;2023-02-22T16:06:31;1015.2;;;-4.6;45.7
53699;BME280;39591;53.952;27.612;2023-02-22T16:11:50;1015.3;;;-4.6;46.3
53699;BME280;39591;53.952;27.612;2023-02-22T16:16:19;1015.4;;;-4.7;46.8
53699;BME280;39591;53.952;27.612;2023-02-22T16:21:49;1015.4;;;-4.7;47.4
53699;BME280;39591;53.952;27.612;2023-02-22T16:26:25;1015.6;;;-4.8;48
53699;BME280;39591;53.952;27.612;2023-02-22T16:31:34;1015.6;;;-4.9;48.5
53699;BME280;39591;53.952;27.612;2023-02-22T16:37:04;1015.7;;;-4.9;48.9
53699;BME280;39591;53.952;27.612;2023-02-22T16:41:08;1015.8;;;-5;48.9
53699;BME280;39591;53.952;27.612;2023-02-22T16:46:38;1015.8;;;-5;49.1
53699;BME280;39591;53.952;27.612;2023-02-22T16:51:09;1015.9;;;-5;49.1
53699;BME280;39591;53.952;27.612;2023-02-22T16:56:32;1016;;;-5.1;49
53699;BME280;39591;53.952;27.612;2023-02-22T17:02:00;1016;;;-5.1;49.2
53699;BME280;39591;53.952;27.612;2023-02-22T17:06:20;1016.2;;;-5.2;49.5
53699;BME280;39591;53.952;27.612;2023-02-22T17:11:30;1016.3;;;-5.2;49.9
53699;BME280;39591;53.952;27.612;2023-02-22T17:16:20;1016.3;;;-5.3;49.8
53699;BME280;39591;53.952;27.612;2023-02-22T17:21:08;1016.4;;;-5.3;49.9
53699;BME280;39591;53.952;27.612;2023-02-22T17:26:50;1016.5;;;-5.3;49.7
53699;BME280;39591;53.952;27.612;2023-02-22T17:31:23;1016.5;;;-5.4;49.9
53699;BME280;39591;53.952;27.612;2023-02-22T17:36:46;1016.5;;;-5.5;49.8
53699;BME280;39591;53.952;27.612;2023-02-22T17:41:14;1016.5;;;-5.5;49.9
53699;BME280;39591;53.952;27.612;2023-02-22T17:46:20;1016.5;;;-5.6;50.1
53699;BME280;39591;53.952;27.612;2023-02-22T17:52:02;1016.6;;;-5.6;50.4
53699;BME280;39591;53.952;27.612;2023-02-22T17:56:09;1016.7;;;-5.7;50.6
53699;BME280;39591;53.952;27.612;2023-02-22T18:01:48;1016.6;;;-5.8;50.9
53699;BME280;39591;53.952;27.612;2023-02-22T18:06:21;1016.7;;;-5.8;51
53699;BME280;39591;53.952;27.612;2023-02-22T18:11:20;1016.7;;;-5.9;51.2
53699;BME280;39591;53.952;27.612;2023-02-22T18:17:03;1016.8;;;-5.9;51
53699;BME280;39591;53.952;27.612;2023-02-22T18:21:09;1016.9;;;-6;50.9
53699;BME280;39591;53.952;27.612;2023-02-22T18:26:48;1016.9;;;-6;50.6
53699;BME280;39591;53.952;27.612;2023-02-22T18:31:32;1017;;;-6.1;50.1
53699;BME280;39591;53.952;27.612;2023-02-22T18:36:34;1017;;;-6.2;49.4
53699;BME280;39591;53.952;27.612;2023-02-22T18:41:56;1017;;;-6.3;49.5
53699;BME280;39591;53.952;27.612;2023-02-22T18:46:09;1017.1;;;-6.4;49.6
53699;BME280;39591;53.952;27.612;2023-02-22T18:52:00;1017.1;;;-6.4;49.9
53699;BME280;39591;53.952;27.612;2023-02-22T18:56:10;1017.2;;;-6.4;49.9
53699;BME280;39591;53.952;27.612;2023-02-22T19:01:44;1017.2;;;-6.5;50.1
53699;BME280;39591;53.952;27.612;2023-02-22T19:07:02;1017.2;;;-6.6;50.4
53699;BME280;39591;53.952;27.612;2023-02-22T19:11:48;1017.2;;;-6.6;50.8
53699;BME280;39591;53.952;27.612;2023-02-22T19:16:49;1017.3;;;-6.6;51.2
53699;BME280;39591;53.952;27.612;2023-02-22T19:21:08;1017.4;;;-6.6;51.4
53699;BME280;39591;53.952;27.612;2023-02-22T19:26:19;1017.4;;;-6.6;51.4
53699;BME280;39591;53.952;27.612;2023-02-22T19:32:00;1017.4;;;-6.7;51.6
53699;BME280;39591;53.952;27.612;2023-02-22T19:36:09;1017.4;;;-6.8;52.1
53699;BME280;39591;53.952;27.612;2023-02-22T19:41:44;1017.5;;;-6.8;52.4
53699;BME280;39591;53.952;27.612;2023-02-22T19:46:21;1017.6;;;-6.9;52.2
53699;BME280;39591;53.952;27.612;2023-02-22T19:51:09;1017.7;;;-7;52.4
53699;BME280;39591;53.952;27.612;2023-02-22T19:57:02;1017.6;;;-7;52.9
53699;BME280;39591;53.952;27.612;2023-02-22T20:01:34;1017.6;;;-7.1;53.3
53699;BME280;39591;53.952;27.612;2023-02-22T20:06:51;1017.6;;;-7.2;53.8
53699;BME280;39591;53.952;27.612;2023-02-22T20:11:20;1017.7;;;-7.2;54
53699;BME280;39591;53.952;27.612;2023-02-22T20:16:34;1017.7;;;-7.2;54.1
53699;BME280;39591;53.952;27.612;2023-02-22T20:22:05;1017.8;;;-7.3;54.3
53699;BME280;39591;53.952;27.612;2023-02-22T20:26:35;1017.8;;;-7.3;54.5
53699;BME280;39591;53.952;27.612;2023-02-22T20:31:48;1017.9;;;-7.3;55
53699;BME280;39591;53.952;27.612;2023-02-22T20:36:09;1018;;;-7.4;55.2
53699;BME280;39591;53.952;27.612;2023-02-22T20:41:48;1018;;;-7.4;55.4
53699;BME280;39591;53.952;27.612;2023-02-22T20:47:04;1018;;;-7.5;55.6
53699;BME280;39591;53.952;27.612;2023-02-22T20:51:34;1018.1;;;-7.5;55.8
53699;BME280;39591;53.952;27.612;2023-02-22T20:56:48;1018.2;;;-7.6;55.8
53699;BME280;39591;53.952;27.612;2023-02-22T21:01:35;1018.2;;;-7.6;56.1
53699;BME280;39591;53.952;27.612;2023-02-22T21:06:09;1018.3;;;-7.6;56.3
53699;BME280;39591;53.952;27.612;2023-02-22T21:12:05;1018.3;;;-7.7;56.2
53699;BME280;39591;53.952;27.612;2023-02-22T21:16:09;1018.3;;;-7.8;56.6
53699;BME280;39591;53.952;27.612;2023-02-22T21:21:11;1018.3;;;-7.8;56.7
53699;BME280;39591;53.952;27.612;2023-02-22T21:26:13;1018.3;;;-7.9;56.9
53699;BME280;39591;53.952;27.612;2023-02-22T21:31:09;1018.3;;;-7.9;57.2
53699;BME280;39591;53.952;27.612;2023-02-22T21:37:04;1018.4;;;-7.9;57.4
53699;BME280;39591;53.952;27.612;2023-02-22T21:41:21;1018.4;;;-7.9;57.2
53699;BME280;39591;53.952;27.612;2023-02-22T21:46:36;1018.4;;;-7.8;57.2
53699;BME280;39591;53.952;27.612;2023-02-22T21:51:09;1018.4;;;-7.8;57.3
53699;BME280;39591;53.952;27.612;2023-02-22T21:56:33;1018.5;;;-7.8;57.2
53699;BME280;39591;53.952;27.612;2023-02-22T22:02:04;1018.5;;;-7.8;57.4
53699;BME280;39591;53.952;27.612;2023-02-22T22:06:34;1018.6;;;-7.8;57.5
53699;BME280;39591;53.952;27.612;2023-02-22T22:11:51;1018.6;;;-7.8;57.5
53699;BME280;39591;53.952;27.612;2023-02-22T22:16:32;1018.7;;;-7.8;57.6
53699;BME280;39591;53.952;27.612;2023-02-22T22:21:09;1018.7;;;-7.8;57.9
53699;BME280;39591;53.952;27.612;2023-02-22T22:27:04;1018.6;;;-7.7;57.9
53699;BME280;39591;53.952;27.612;2023-02-22T22:31:21;1018.6;;;-7.7;58
53699;BME280;39591;53.952;27.612;2023-02-22T22:36:23;1018.6;;;-7.6;57.6
53699;BME280;39591;53.952;27.612;2023-02-22T22:41:09;1018.7;;;-7.7;57.7
53699;BME280;39591;53.952;27.612;2023-02-22T22:46:08;1018.7;;;-7.7;58
53699;BME280;39591;53.952;27.612;2023-02-22T22:52:02;1018.8;;;-7.7;58
53699;BME280;39591;53.952;27.612;2023-02-22T22:56:09;1018.8;;;-7.8;58.1
53699;BME280;39591;53.952;27.612;2023-02-22T23:01:50;1018.8;;;-7.8;58.5
53699;BME280;39591;53.952;27.612;2023-02-22T23:06:08;1018.8;;;-7.8;58.7
53699;BME280;39591;53.952;27.612;2023-02-22T23:11:34;1018.8;;;-7.8;58.4
53699;BME280;39591;53.952;27.612;2023-02-22T23:17:05;1018.9;;;-7.9;58.4
53699;BME280;39591;53.952;27.612;2023-02-22T23:21:48;1018.9;;;-8;58.3
53699;BME280;39591;53.952;27.612;2023-02-22T23:26:48;1018.9;;;-8.1;58.7
53699;BME280;39591;53.952;27.612;2023-02-22T23:31:16;1019;;;-8.1;58.9
53699;BME280;39591;53.952;27.612;2023-02-22T23:36:30;1019;;;-8.2;59.3
53699;BME280;39591;53.952;27.612;2023-02-22T23:42:00;1019;;;-8.3;59.5
53699;BME280;39591;53.952;27.612;2023-02-22T23:46:45;1019;;;-8.3;59.7
53699;BME280;39591;53.952;27.612;2023-02-22T23:51:44;1019;;;-8.3;60
53699;BME280;39591;53.952;27.612;2023-02-22T23:57:00;1019.1;;;-8.3;59.9
